Time;durP1;ratioP1;P1;durP2;ratioP2;P2;SDS_P1;SDS_P2;PMS_P1;PMS_P2;Temp;Humidity;BMP_temperature;BMP_pressure;BME280_temperature;BME280_humidity;BME280_pressure;Samples;Min_cycle;Max_cycle;Signal;HPM_P1;HPM_P2
2023/04/23 00:01:04;;;;;;;7.37;6.67;;;15.20;90.60;;;;;;5029570;28;20428;-70
2023/04/23 00:03:34;;;;;;;9.70;7.57;;;15.20;90.90;;;;;;5030464;28;20556;-69
2023/04/23 00:06:05;;;;;;;7.80;6.80;;;15.20;91.10;;;;;;5022948;28;20846;-70
2023/04/23 00:08:31;;;;;;;8.37;6.10;;;15.10;91.10;;;;;;5022809;28;20448;-70
2023/04/23 00:10:57;;;;;;;7.60;7.00;;;15.10;91.20;;;;;;5004700;28;20423;-70
2023/04/23 00:13:23;;;;;;;8.60;7.80;;;15.10;91.40;;;;;;5023488;28;20976;-71
2023/04/23 00:15:49;;;;;;;8.30;7.13;;;15.10;91.40;;;;;;5023099;28;20407;-71
2023/04/23 00:18:16;;;;;;;15.27;7.33;;;15.10;91.50;;;;;;5023226;28;20509;-70
2023/04/23 00:20:42;;;;;;;9.07;7.80;;;15.10;91.70;;;;;;5029184;28;20410;-71
2023/04/23 00:23:08;;;;;;;7.50;6.70;;;15.10;91.80;;;;;;5023554;28;20533;-70
2023/04/23 00:25:33;;;;;;;8.63;6.63;;;15.00;92.00;;;;;;5023306;28;20480;-71
2023/04/23 00:27:59;;;;;;;8.40;7.10;;;15.00;92.10;;;;;;5023020;28;20446;-70
2023/04/23 00:30:25;;;;;;;8.50;7.60;;;15.00;92.20;;;;;;5005489;28;20183;-72
2023/04/23 00:32:50;;;;;;;8.30;7.40;;;14.90;92.30;;;;;;5021586;28;20180;-71
2023/04/23 00:35:17;;;;;;;8.60;7.60;;;15.00;92.40;;;;;;5023060;28;20237;-70
2023/04/23 00:37:43;;;;;;;9.40;8.47;;;14.90;92.50;;;;;;5022811;28;20306;-70
2023/04/23 00:40:10;;;;;;;10.57;8.10;;;15.00;92.70;;;;;;5023953;28;20846;-70
2023/04/23 00:42:37;;;;;;;8.77;7.90;;;15.00;92.70;;;;;;5023739;28;20194;-70
2023/04/23 00:45:04;;;;;;;8.00;7.20;;;15.00;92.90;;;;;;5019870;28;20857;-71
2023/04/23 00:47:31;;;;;;;12.03;8.43;;;15.00;93.00;;;;;;5025172;28;20414;-70
2023/04/23 00:49:58;;;;;;;9.67;7.13;;;15.00;93.00;;;;;;5002347;28;20470;-71
2023/04/23 00:52:24;;;;;;;9.00;7.60;;;15.00;93.00;;;;;;5006687;28;20444;-70
2023/04/23 00:54:49;;;;;;;8.13;7.33;;;15.00;93.10;;;;;;5021229;28;20423;-71
2023/04/23 00:57:16;;;;;;;9.17;7.77;;;15.00;93.30;;;;;;5029990;28;20230;-70
2023/04/23 00:59:42;;;;;;;8.40;7.60;;;15.00;93.40;;;;;;5022282;28;20206;-69
2023/04/23 01:02:08;;;;;;;8.80;7.30;;;15.00;93.50;;;;;;5024824;28;20422;-70
2023/04/23 01:04:35;;;;;;;10.80;7.23;;;15.00;93.50;;;;;;5026348;28;20422;-71
2023/04/23 01:07:01;;;;;;;10.90;8.67;;;15.00;93.60;;;;;;5022772;28;20331;-70
2023/04/23 01:09:27;;;;;;;8.27;6.63;;;15.00;93.80;;;;;;5025786;28;20477;-70
2023/04/23 01:11:52;;;;;;;8.33;7.63;;;15.00;93.80;;;;;;5024541;28;20437;-73
2023/04/23 01:14:18;;;;;;;8.50;7.07;;;15.00;94.00;;;;;;5023753;28;20180;-71
2023/04/23 01:16:44;;;;;;;8.30;7.50;;;15.00;94.40;;;;;;5003980;28;20275;-69
2023/04/23 01:19:10;;;;;;;8.47;7.63;;;14.90;94.20;;;;;;5018701;28;20203;-70
2023/04/23 01:21:40;;;;;;;10.57;7.90;;;14.90;94.40;;;;;;5026762;28;20423;-70
2023/04/23 01:24:07;;;;;;;13.40;7.67;;;14.90;94.70;;;;;;5018407;28;20497;-70
2023/04/23 01:26:33;;;;;;;10.77;7.60;;;14.90;94.80;;;;;;5019982;28;20710;-70
2023/04/23 01:28:59;;;;;;;9.43;8.10;;;14.90;94.80;;;;;;5021348;28;20817;-69
2023/04/23 01:31:27;;;;;;;11.43;7.90;;;14.90;95.10;;;;;;5021809;28;20926;-70
2023/04/23 01:33:54;;;;;;;8.17;7.40;;;14.90;95.30;;;;;;5010059;28;20414;-69
2023/04/23 01:36:24;;;;;;;8.17;7.40;;;14.90;95.60;;;;;;5024614;28;20424;-71
2023/04/23 01:38:50;;;;;;;12.60;7.73;;;14.90;95.70;;;;;;5018562;28;20461;-69
2023/04/23 01:41:16;;;;;;;11.57;7.60;;;14.80;95.90;;;;;;5022140;28;20917;-71
2023/04/23 01:43:42;;;;;;;8.20;7.40;;;14.80;96.20;;;;;;5012000;28;20424;-71
2023/04/23 01:46:08;;;;;;;9.27;8.00;;;14.80;96.40;;;;;;5024599;28;20642;-70
2023/04/23 01:48:35;;;;;;;9.53;8.30;;;14.80;96.50;;;;;;5004242;28;20814;-70
2023/04/23 01:51:00;;;;;;;12.57;8.47;;;14.80;96.80;;;;;;5026020;28;20422;-70
2023/04/23 01:53:26;;;;;;;10.33;8.03;;;14.70;97.20;;;;;;5017920;28;20426;-71
2023/04/23 01:55:55;;;;;;;8.40;7.53;;;14.70;97.50;;;;;;5020225;28;20187;-70
2023/04/23 01:58:22;;;;;;;8.63;7.83;;;14.70;97.80;;;;;;5022289;28;20205;-70
2023/04/23 02:00:48;;;;;;;9.00;7.73;;;14.70;98.70;;;;;;5031176;28;20421;-71
2023/04/23 02:03:14;;;;;;;9.70;8.60;;;14.60;98.60;;;;;;5034117;28;20514;-70
2023/04/23 02:05:41;;;;;;;8.30;7.30;;;14.60;98.80;;;;;;5021060;28;20862;-71
2023/04/23 02:08:07;;;;;;;8.97;8.17;;;14.60;99.30;;;;;;5026012;28;20518;-71
2023/04/23 02:10:33;;;;;;;11.10;7.10;;;14.60;99.80;;;;;;5011945;28;20422;-71
2023/04/23 02:13:00;;;;;;;9.70;7.57;;;14.60;99.90;;;;;;5025458;28;20771;-70
2023/04/23 02:15:25;;;;;;;9.30;7.70;;;14.50;99.90;;;;;;5028202;28;20180;-71
2023/04/23 02:17:51;;;;;;;7.93;7.23;;;14.40;99.90;;;;;;5028770;28;20457;-70
2023/04/23 02:20:18;;;;;;;9.10;8.30;;;14.40;99.90;;;;;;5027493;28;20374;-70
2023/04/23 02:22:45;;;;;;;9.33;8.40;;;14.30;99.90;;;;;;5029307;28;20172;-70
2023/04/23 02:25:14;;;;;;;9.63;7.90;;;14.20;99.90;;;;;;5033211;28;20437;-72
2023/04/23 02:27:40;;;;;;;9.27;7.90;;;14.00;99.90;;;;;;5025206;28;20469;-70
2023/04/23 02:30:07;;;;;;;8.60;7.80;;;13.90;99.90;;;;;;5025935;28;20476;-71
2023/04/23 02:32:33;;;;;;;11.00;9.17;;;13.90;99.90;;;;;;5023137;28;20924;-71
2023/04/23 02:35:00;;;;;;;8.20;7.40;;;13.80;99.90;;;;;;5029883;28;20422;-70
2023/04/23 02:37:26;;;;;;;9.87;8.90;;;13.80;99.90;;;;;;5033575;28;20432;-70
2023/04/23 02:39:52;;;;;;;9.63;7.97;;;13.90;99.90;;;;;;5027511;28;20458;-70
2023/04/23 02:42:17;;;;;;;8.50;7.60;;;13.80;99.90;;;;;;5027282;28;20888;-70
2023/04/23 02:44:43;;;;;;;9.57;8.57;;;13.90;99.90;;;;;;5021288;28;20186;-72
2023/04/23 02:47:09;;;;;;;10.90;8.70;;;13.90;99.90;;;;;;5018561;28;20177;-70
2023/04/23 02:49:35;;;;;;;10.93;8.63;;;13.90;99.90;;;;;;5016193;28;20219;-70
2023/04/23 02:52:01;;;;;;;9.20;8.30;;;13.90;99.90;;;;;;5023085;28;20562;-70
2023/04/23 02:54:27;;;;;;;9.67;8.67;;;13.90;99.90;;;;;;5032497;28;20480;-70
2023/04/23 02:56:52;;;;;;;12.47;9.07;;;14.00;99.90;;;;;;5025937;28;20430;-70
2023/04/23 02:59:18;;;;;;;9.53;7.90;;;14.00;99.90;;;;;;5016429;28;20208;-70
2023/04/23 03:01:43;;;;;;;9.87;8.40;;;14.00;99.90;;;;;;5022699;28;20221;-69
2023/04/23 03:04:09;;;;;;;8.83;7.93;;;14.00;99.90;;;;;;5021444;28;20187;-71
2023/04/23 03:06:35;;;;;;;10.20;9.20;;;14.00;99.90;;;;;;5027859;28;20175;-71
2023/04/23 03:09:01;;;;;;;9.20;8.40;;;14.00;99.90;;;;;;5017471;28;20227;-71
2023/04/23 03:11:27;;;;;;;9.63;8.10;;;14.00;99.90;;;;;;5026786;28;20422;-70
2023/04/23 03:13:52;;;;;;;8.83;7.93;;;14.00;99.90;;;;;;5019712;28;20198;-71
2023/04/23 03:16:18;;;;;;;8.03;7.23;;;14.00;99.90;;;;;;5026648;28;20182;-71
2023/04/23 03:18:44;;;;;;;8.77;7.80;;;14.00;99.90;;;;;;5027872;28;20226;-71
2023/04/23 03:21:10;;;;;;;9.17;7.30;;;14.00;99.90;;;;;;5020278;28;20414;-71
2023/04/23 03:23:35;;;;;;;7.57;6.77;;;14.00;99.90;;;;;;5032972;28;20267;-70
2023/04/23 03:26:01;;;;;;;8.03;7.23;;;14.10;99.90;;;;;;5017807;28;20259;-70
2023/04/23 03:28:27;;;;;;;7.03;6.33;;;14.10;99.90;;;;;;5027199;28;20290;-70
2023/04/23 03:30:52;;;;;;;12.03;7.43;;;14.10;99.90;;;;;;5020795;28;20179;-70
2023/04/23 03:33:18;;;;;;;12.00;8.20;;;14.10;99.90;;;;;;4995941;28;20663;-70
2023/04/23 03:35:43;;;;;;;8.37;7.40;;;14.10;99.90;;;;;;5024785;28;20543;-69
2023/04/23 03:38:09;;;;;;;8.57;7.53;;;14.10;99.90;;;;;;5029485;28;20196;-70
2023/04/23 03:40:35;;;;;;;8.00;7.20;;;14.10;99.90;;;;;;5032454;28;20210;-71
2023/04/23 03:43:01;;;;;;;8.17;6.40;;;14.10;99.90;;;;;;5018322;28;20403;-70
2023/04/23 03:45:26;;;;;;;8.50;7.37;;;14.10;99.90;;;;;;5027946;28;20466;-71
2023/04/23 03:47:52;;;;;;;7.87;6.63;;;14.20;99.90;;;;;;5029755;28;20293;-70
2023/04/23 03:50:17;;;;;;;11.37;7.53;;;14.20;99.90;;;;;;5027075;28;20173;-70
2023/04/23 03:52:43;;;;;;;7.43;6.73;;;14.20;99.90;;;;;;5021136;28;20180;-70
2023/04/23 03:55:09;;;;;;;8.33;7.53;;;14.20;99.90;;;;;;5028120;28;20234;-71
2023/04/23 03:57:35;;;;;;;7.83;7.13;;;14.30;99.90;;;;;;5018626;28;20288;-71
2023/04/23 04:00:02;;;;;;;7.93;7.17;;;14.30;99.90;;;;;;5023296;28;20196;-70
2023/04/23 04:02:27;;;;;;;9.17;7.10;;;14.30;99.90;;;;;;5020168;28;20926;-72
2023/04/23 04:04:53;;;;;;;7.67;6.97;;;14.40;99.90;;;;;;5021179;28;20415;-71
2023/04/23 04:07:20;;;;;;;7.90;7.20;;;14.40;99.90;;;;;;5027554;28;20592;-70
2023/04/23 04:09:47;;;;;;;9.47;8.47;;;14.40;99.90;;;;;;5017446;28;20416;-71
2023/04/23 04:12:14;;;;;;;8.10;7.13;;;14.40;99.90;;;;;;5026182;28;20891;-71
2023/04/23 04:14:41;;;;;;;9.77;6.83;;;14.40;99.90;;;;;;5017337;28;20411;-70
2023/04/23 04:17:07;;;;;;;10.20;7.77;;;14.40;99.90;;;;;;5015950;28;20782;-71
2023/04/23 04:19:32;;;;;;;10.20;7.53;;;14.30;99.90;;;;;;5022426;28;20542;-70
2023/04/23 04:21:58;;;;;;;8.47;7.60;;;14.30;99.90;;;;;;5022449;28;20917;-70
2023/04/23 04:24:24;;;;;;;7.87;7.10;;;14.30;99.90;;;;;;5025542;28;20172;-70
2023/04/23 04:26:51;;;;;;;11.57;8.30;;;14.20;99.90;;;;;;5021711;28;20415;-71
2023/04/23 04:29:18;;;;;;;11.20;8.17;;;14.20;99.90;;;;;;5025867;28;20184;-71
2023/04/23 04:31:45;;;;;;;7.97;7.00;;;14.20;99.90;;;;;;5020996;28;20415;-72
2023/04/23 04:34:13;;;;;;;7.93;7.13;;;14.20;99.90;;;;;;5023260;28;20414;-71
2023/04/23 04:36:40;;;;;;;7.17;6.47;;;14.20;99.90;;;;;;5018657;28;20482;-71
2023/04/23 04:39:06;;;;;;;7.47;6.50;;;14.20;99.90;;;;;;5030458;28;20939;-68
2023/04/23 04:41:32;;;;;;;7.70;6.93;;;14.20;99.90;;;;;;5019995;28;20408;-70
2023/04/23 04:43:58;;;;;;;6.60;6.00;;;14.30;99.90;;;;;;5021711;28;21025;-70
2023/04/23 04:46:25;;;;;;;8.63;6.60;;;14.40;99.90;;;;;;5026096;28;20406;-70
2023/04/23 04:48:50;;;;;;;7.37;6.30;;;14.50;99.90;;;;;;5027039;28;20295;-71
2023/04/23 04:51:16;;;;;;;8.00;7.20;;;14.60;99.90;;;;;;5019472;28;20501;-70
2023/04/23 04:53:42;;;;;;;6.30;5.63;;;14.70;99.90;;;;;;5021825;28;20176;-68
2023/04/23 04:56:08;;;;;;;7.33;5.93;;;14.70;99.90;;;;;;5025894;28;20525;-72
2023/04/23 04:58:33;;;;;;;9.57;5.33;;;14.70;99.90;;;;;;5028525;28;20199;-72
2023/04/23 05:01:00;;;;;;;6.90;5.67;;;14.80;99.90;;;;;;5020498;28;20416;-72
2023/04/23 05:03:26;;;;;;;6.30;5.70;;;14.80;99.90;;;;;;5022696;28;20163;-70
2023/04/23 05:05:55;;;;;;;6.93;6.27;;;14.80;99.90;;;;;;5019575;28;20781;-69
2023/04/23 05:08:21;;;;;;;7.23;6.53;;;14.80;99.90;;;;;;5022598;28;20435;-70
2023/04/23 05:10:49;;;;;;;7.50;5.40;;;14.70;99.90;;;;;;5027340;28;20849;-68
2023/04/23 05:13:15;;;;;;;7.10;6.40;;;14.70;99.90;;;;;;5022797;28;20825;-70
2023/04/23 05:15:40;;;;;;;5.70;5.10;;;14.60;99.90;;;;;;5027797;28;20511;-69
2023/04/23 05:18:08;;;;;;;6.93;6.23;;;14.50;99.90;;;;;;5028692;28;20523;-71
2023/04/23 05:20:34;;;;;;;6.33;5.73;;;14.70;99.90;;;;;;5018020;28;20200;-71
2023/04/23 05:23:01;;;;;;;6.07;5.33;;;14.70;99.90;;;;;;5028167;28;20420;-71
2023/04/23 05:25:27;;;;;;;12.90;6.40;;;14.70;99.90;;;;;;5022357;28;20708;-70
2023/04/23 05:27:53;;;;;;;7.17;6.00;;;14.90;99.90;;;;;;5015901;28;20462;-70
2023/04/23 05:30:19;;;;;;;6.90;6.30;;;14.90;99.90;;;;;;5022971;28;20513;-71
2023/04/23 05:32:44;;;;;;;5.67;5.10;;;15.00;99.90;;;;;;5020848;28;20260;-71
2023/04/23 05:35:10;;;;;;;6.67;5.77;;;15.30;99.90;;;;;;5000384;28;20248;-71
2023/04/23 05:37:36;;;;;;;6.43;5.30;;;15.30;99.90;;;;;;5022509;28;20492;-69
2023/04/23 05:40:01;;;;;;;6.67;5.60;;;15.40;99.90;;;;;;5009400;28;20667;-69
2023/04/23 05:42:27;;;;;;;13.97;5.97;;;15.30;99.90;;;;;;5016155;28;20228;-71
2023/04/23 05:44:53;;;;;;;6.47;5.80;;;15.30;99.90;;;;;;5011513;28;20188;-71
2023/04/23 05:47:18;;;;;;;6.17;5.57;;;15.40;99.90;;;;;;5024807;28;20510;-71
2023/04/23 05:49:44;;;;;;;8.67;5.73;;;15.40;99.90;;;;;;5028669;28;20617;-71
2023/04/23 05:52:10;;;;;;;5.47;5.00;;;15.40;99.90;;;;;;5012842;28;20177;-71
2023/04/23 05:54:36;;;;;;;9.20;5.43;;;15.10;99.90;;;;;;5021525;28;20185;-71
2023/04/23 05:57:02;;;;;;;5.50;5.00;;;15.10;99.90;;;;;;5020488;28;20785;-69
2023/04/23 05:59:28;;;;;;;5.87;5.27;;;15.30;99.90;;;;;;5020402;28;20330;-70
2023/04/23 06:01:53;;;;;;;5.93;5.40;;;15.40;99.90;;;;;;5028397;28;20449;-72
2023/04/23 06:04:19;;;;;;;6.60;4.73;;;15.50;99.90;;;;;;5018818;28;20174;-71
2023/04/23 06:06:45;;;;;;;5.67;5.00;;;15.60;99.90;;;;;;5024489;28;20195;-70
2023/04/23 06:09:11;;;;;;;4.80;4.40;;;15.90;99.90;;;;;;5016179;28;20318;-72
2023/04/23 06:11:37;;;;;;;5.60;4.97;;;15.80;99.90;;;;;;5022172;28;20178;-70
2023/04/23 06:14:03;;;;;;;5.27;4.77;;;16.00;99.90;;;;;;5017529;28;20425;-71
2023/04/23 06:16:28;;;;;;;5.80;5.30;;;15.90;99.90;;;;;;5014584;28;20179;-70
2023/04/23 06:18:55;;;;;;;4.50;4.10;;;15.80;99.90;;;;;;5027048;28;20240;-71
2023/04/23 06:21:23;;;;;;;5.03;4.53;;;15.70;99.90;;;;;;5013950;28;20178;-73
2023/04/23 06:23:49;;;;;;;5.67;5.00;;;15.70;99.90;;;;;;5023815;28;20815;-71
2023/04/23 06:26:15;;;;;;;5.93;5.07;;;15.60;99.90;;;;;;5011630;28;20872;-70
2023/04/23 06:28:42;;;;;;;6.30;4.80;;;15.40;99.90;;;;;;5023309;28;20432;-70
2023/04/23 06:31:08;;;;;;;4.70;4.30;;;15.30;99.90;;;;;;5020635;28;20178;-71
2023/04/23 06:33:36;;;;;;;7.40;5.10;;;15.50;99.90;;;;;;5014743;28;20889;-70
2023/04/23 06:36:02;;;;;;;9.30;5.70;;;15.60;99.90;;;;;;5024578;28;20167;-69
2023/04/23 06:38:28;;;;;;;5.73;5.23;;;15.70;99.90;;;;;;5019539;28;20452;-70
2023/04/23 06:40:54;;;;;;;6.67;4.63;;;15.50;99.90;;;;;;5025439;28;20776;-71
2023/04/23 06:43:20;;;;;;;5.33;4.83;;;15.40;99.90;;;;;;5011287;28;20172;-70
2023/04/23 06:45:45;;;;;;;9.10;4.60;;;15.50;99.90;;;;;;5018433;28;20916;-71
2023/04/23 06:48:11;;;;;;;5.00;4.60;;;15.60;99.90;;;;;;5025269;28;20229;-71
2023/04/23 06:50:38;;;;;;;4.80;4.40;;;15.60;99.90;;;;;;5026477;28;20491;-70
2023/04/23 06:53:04;;;;;;;5.80;4.57;;;15.60;99.90;;;;;;5025274;28;20178;-68
2023/04/23 06:55:30;;;;;;;5.37;4.70;;;15.40;99.90;;;;;;5006369;28;20424;-70
2023/04/23 06:57:55;;;;;;;4.73;4.27;;;15.40;99.90;;;;;;5017383;28;20467;-70
2023/04/23 07:00:22;;;;;;;5.93;4.87;;;15.40;99.90;;;;;;5017341;28;20224;-70
2023/04/23 07:02:48;;;;;;;4.90;4.30;;;15.30;99.90;;;;;;5020952;28;20187;-69
2023/04/23 07:05:15;;;;;;;5.80;5.20;;;15.20;99.90;;;;;;5025301;28;20413;-70
2023/04/23 07:07:42;;;;;;;6.33;4.80;;;15.20;99.90;;;;;;5022159;28;20276;-69
2023/04/23 07:10:08;;;;;;;5.77;5.27;;;15.10;99.90;;;;;;5019041;28;20414;-71
2023/04/23 07:12:35;;;;;;;5.57;4.97;;;15.00;99.90;;;;;;5027750;28;20425;-69
2023/04/23 07:15:01;;;;;;;8.70;4.30;;;14.90;99.90;;;;;;5030061;28;20880;-71
2023/04/23 07:17:26;;;;;;;4.40;3.70;;;14.80;99.90;;;;;;5031713;28;20470;-69
2023/04/23 07:19:52;;;;;;;5.60;5.10;;;14.80;99.90;;;;;;5026384;28;20459;-70
2023/04/23 07:22:18;;;;;;;7.30;4.90;;;14.60;99.90;;;;;;5017828;28;20176;-72
2023/04/23 07:24:43;;;;;;;3.97;3.60;;;14.50;99.90;;;;;;5025690;28;20180;-71
2023/04/23 07:27:09;;;;;;;5.67;4.40;;;14.40;99.90;;;;;;5020396;28;20258;-70
2023/04/23 07:29:34;;;;;;;6.00;5.40;;;14.30;99.90;;;;;;5024772;28;20214;-71
2023/04/23 07:32:00;;;;;;;5.60;5.10;;;14.20;99.90;;;;;;5029832;28;20180;-71
2023/04/23 07:34:26;;;;;;;7.30;5.10;;;14.20;99.90;;;;;;5024711;28;20192;-69
2023/04/23 07:36:51;;;;;;;7.40;5.57;;;14.30;99.90;;;;;;5029411;28;20176;-72
2023/04/23 07:39:17;;;;;;;7.63;5.40;;;14.20;99.90;;;;;;5032057;28;20195;-72
2023/04/23 07:41:43;;;;;;;5.77;5.23;;;14.30;99.90;;;;;;5025540;28;20180;-71
2023/04/23 07:44:08;;;;;;;6.43;5.67;;;14.30;99.90;;;;;;5031225;28;20233;-71
2023/04/23 07:46:34;;;;;;;9.77;5.80;;;14.30;99.90;;;;;;5027442;28;20186;-71
2023/04/23 07:49:00;;;;;;;6.73;6.23;;;14.30;99.90;;;;;;5018987;28;20239;-73
2023/04/23 07:51:25;;;;;;;6.90;5.77;;;14.30;99.90;;;;;;5023402;28;20183;-71
2023/04/23 07:53:55;;;;;;;6.43;5.73;;;14.30;99.90;;;;;;5019244;28;20666;-71
2023/04/23 07:56:21;;;;;;;9.00;5.90;;;14.50;99.90;;;;;;5024636;28;20545;-70
2023/04/23 07:58:47;;;;;;;5.90;5.10;;;14.60;99.90;;;;;;5016312;28;21451;-73
2023/04/23 08:01:12;;;;;;;6.87;6.27;;;14.50;99.90;;;;;;5018605;28;20552;-71
2023/04/23 08:03:38;;;;;;;9.43;6.00;;;14.40;99.90;;;;;;5019537;28;20172;-70
2023/04/23 08:06:05;;;;;;;6.80;6.20;;;14.40;99.90;;;;;;5005564;28;20367;-71
2023/04/23 08:08:31;;;;;;;12.00;7.93;;;14.50;99.90;;;;;;5020697;28;20870;-73
2023/04/23 08:10:57;;;;;;;9.47;6.13;;;14.70;99.90;;;;;;5024095;28;20598;-71
2023/04/23 08:13:23;;;;;;;6.87;5.90;;;14.70;99.90;;;;;;5028172;28;20269;-71
2023/04/23 08:15:50;;;;;;;6.60;5.97;;;14.70;99.90;;;;;;5018734;28;20513;-70
2023/04/23 08:18:16;;;;;;;7.10;6.50;;;14.50;99.90;;;;;;5028005;28;20215;-69
2023/04/23 08:20:42;;;;;;;6.40;5.83;;;14.60;99.90;;;;;;5027946;28;20467;-71
2023/04/23 08:23:08;;;;;;;8.07;7.27;;;14.60;99.90;;;;;;5014817;28;20176;-71
2023/04/23 08:25:36;;;;;;;10.60;6.93;;;14.60;99.90;;;;;;5027597;28;20172;-70
2023/04/23 08:28:02;;;;;;;7.93;6.00;;;14.50;99.90;;;;;;5023258;28;20538;-71
2023/04/23 08:30:28;;;;;;;5.60;5.10;;;14.50;99.90;;;;;;5024177;28;20450;-71
2023/04/23 08:32:54;;;;;;;6.90;6.20;;;14.60;99.90;;;;;;5028755;28;20455;-71
2023/04/23 08:35:19;;;;;;;6.87;6.23;;;14.80;99.90;;;;;;5028238;28;20552;-71
2023/04/23 08:37:45;;;;;;;6.50;5.90;;;14.90;99.90;;;;;;5018210;28;20199;-73
2023/04/23 08:40:12;;;;;;;6.60;5.80;;;14.90;99.90;;;;;;5031682;28;20454;-70
2023/04/23 08:42:51;;;;;;;6.40;5.77;;;14.90;99.90;;;;;;5019924;28;20937;-69
2023/04/23 08:45:18;;;;;;;6.50;4.97;;;15.20;99.90;;;;;;5029166;28;20411;-70
2023/04/23 08:47:43;;;;;;;6.10;5.60;;;15.00;99.90;;;;;;5020553;28;20448;-70
2023/04/23 08:50:11;;;;;;;6.40;5.77;;;14.90;99.90;;;;;;5008043;28;20528;-70
2023/04/23 08:52:41;;;;;;;6.00;5.20;;;15.30;99.90;;;;;;5022871;28;20188;-69
2023/04/23 08:55:13;;;;;;;7.60;6.90;;;15.60;99.90;;;;;;5012568;28;20503;-70
2023/04/23 08:57:39;;;;;;;6.27;5.77;;;16.00;99.90;;;;;;5022901;28;20431;-69
2023/04/23 09:00:07;;;;;;;5.53;4.97;;;15.90;99.90;;;;;;5023220;28;20918;-69
2023/04/23 09:02:38;;;;;;;7.30;5.60;;;16.20;99.90;;;;;;5015807;28;20417;-69
2023/04/23 09:05:04;;;;;;;11.47;6.57;;;16.40;99.90;;;;;;5015831;28;20412;-69
2023/04/23 09:07:30;;;;;;;8.33;5.70;;;16.30;99.90;;;;;;5026465;28;20430;-70
2023/04/23 09:09:56;;;;;;;6.23;5.63;;;15.90;99.90;;;;;;5022253;28;20768;-71
2023/04/23 09:12:22;;;;;;;6.33;5.73;;;15.40;99.90;;;;;;5023371;28;20282;-69
2023/04/23 09:14:50;;;;;;;8.40;6.37;;;15.30;99.90;;;;;;5018339;28;20182;-70
2023/04/23 09:17:17;;;;;;;6.90;6.23;;;15.00;99.90;;;;;;5030879;28;20564;-71
2023/04/23 09:19:43;;;;;;;6.40;5.67;;;15.20;99.90;;;;;;5015686;28;20456;-69
2023/04/23 09:22:09;;;;;;;6.80;6.10;;;15.20;99.90;;;;;;5022927;28;20530;-69
2023/04/23 09:24:35;;;;;;;7.63;6.97;;;14.90;99.90;;;;;;5002442;28;20423;-71
2023/04/23 09:27:02;;;;;;;6.00;5.50;;;14.80;99.90;;;;;;5016031;28;20914;-72
2023/04/23 09:29:29;;;;;;;6.00;5.40;;;14.80;99.90;;;;;;5022615;28;20508;-72
2023/04/23 09:32:07;;;;;;;8.30;6.60;;;14.70;99.90;;;;;;5026569;28;20931;-71
2023/04/23 09:34:36;;;;;;;5.93;5.43;;;14.60;99.90;;;;;;5012546;28;20473;-70
2023/04/23 09:37:02;;;;;;;5.63;5.03;;;14.70;99.90;;;;;;5017707;28;20415;-70
2023/04/23 09:39:28;;;;;;;4.70;4.30;;;14.50;99.90;;;;;;5004802;28;20494;-70
2023/04/23 09:42:04;;;;;;;4.17;3.77;;;14.20;99.90;;;;;;5016403;28;20411;-71
2023/04/23 09:44:32;;;;;;;5.07;3.73;;;14.30;99.90;;;;;;5016605;28;20440;-71
2023/04/23 09:47:08;;;;;;;3.70;3.37;;;14.20;99.90;;;;;;5022339;28;20520;-71
2023/04/23 09:49:45;;;;;;;3.97;3.57;;;14.10;99.90;;;;;;5024968;28;20503;-70
2023/04/23 09:52:11;;;;;;;3.23;2.93;;;14.10;99.90;;;;;;5017104;28;20784;-71
2023/04/23 09:54:36;;;;;;;2.77;2.57;;;13.90;99.90;;;;;;5023073;28;20433;-71
2023/04/23 09:57:07;;;;;;;3.03;2.77;;;13.80;99.90;;;;;;4998277;28;20191;-70
2023/04/23 09:59:35;;;;;;;3.13;2.93;;;13.80;99.90;;;;;;5011708;28;20224;-72
2023/04/23 10:02:02;;;;;;;3.40;3.10;;;13.70;99.90;;;;;;5024223;28;20407;-73
2023/04/23 10:04:28;;;;;;;4.23;3.83;;;13.90;99.90;;;;;;5019732;28;20417;-70
2023/04/23 10:06:55;;;;;;;3.63;3.33;;;14.10;99.90;;;;;;5026589;28;20418;-71
2023/04/23 10:09:23;;;;;;;4.30;3.30;;;14.10;99.90;;;;;;5014799;28;20189;-70
2023/04/23 10:11:53;;;;;;;3.83;3.53;;;14.00;99.90;;;;;;5024708;28;20418;-71
2023/04/23 10:14:22;;;;;;;3.70;3.40;;;14.10;99.90;;;;;;5018937;28;20432;-70
2023/04/23 10:16:52;;;;;;;3.93;3.50;;;14.30;99.90;;;;;;5017590;28;20800;-69
2023/04/23 10:19:21;;;;;;;4.13;3.80;;;14.10;99.90;;;;;;5026853;28;20513;-71
2023/04/23 10:21:53;;;;;;;3.00;2.70;;;14.00;99.90;;;;;;5025812;28;20515;-71
2023/04/23 10:24:21;;;;;;;3.80;3.40;;;13.90;99.90;;;;;;5029542;28;20428;-70
2023/04/23 10:26:48;;;;;;;3.23;2.93;;;13.90;99.90;;;;;;5019688;28;20416;-71
2023/04/23 10:29:16;;;;;;;2.97;2.67;;;13.80;99.90;;;;;;5028776;28;20438;-70
2023/04/23 10:31:42;;;;;;;4.10;3.27;;;14.20;99.90;;;;;;5025605;28;20454;-70
2023/04/23 10:34:09;;;;;;;5.50;4.50;;;14.30;99.90;;;;;;5007842;28;20455;-72
2023/04/23 10:36:37;;;;;;;4.63;4.23;;;14.40;99.90;;;;;;5028117;28;20445;-71
2023/04/23 10:39:06;;;;;;;6.43;3.83;;;14.30;99.90;;;;;;5018413;28;20511;-71
2023/04/23 10:41:38;;;;;;;5.50;4.63;;;14.50;99.90;;;;;;5021246;28;20435;-70
2023/04/23 10:44:11;;;;;;;6.27;5.67;;;14.60;99.90;;;;;;5025418;28;20421;-71
2023/04/23 10:46:36;;;;;;;7.77;6.07;;;14.60;99.90;;;;;;5028415;28;20418;-73
2023/04/23 10:49:15;;;;;;;6.50;5.50;;;14.80;99.90;;;;;;5015323;28;21039;-71
2023/04/23 10:51:44;;;;;;;6.00;5.40;;;15.00;99.90;;;;;;5003998;28;20176;-70
2023/04/23 10:54:12;;;;;;;7.73;5.90;;;15.20;99.90;;;;;;5018815;28;20414;-68
2023/04/23 10:56:39;;;;;;;8.80;7.47;;;15.50;99.90;;;;;;5005013;28;20424;-71
2023/04/23 10:59:18;;;;;;;10.47;8.67;;;15.90;99.90;;;;;;5015795;28;21012;-71
2023/04/23 11:01:49;;;;;;;6.43;5.80;;;16.40;99.90;;;;;;5027426;28;20412;-70
2023/04/23 11:04:27;;;;;;;11.43;8.07;;;16.40;99.90;;;;;;5030571;28;20413;-70
2023/04/23 11:07:02;;;;;;;8.27;7.43;;;17.10;99.90;;;;;;5029062;28;20708;-72
2023/04/23 11:09:30;;;;;;;7.60;6.73;;;17.10;99.90;;;;;;5027184;28;20470;-69
2023/04/23 11:11:56;;;;;;;10.70;6.17;;;17.00;99.90;;;;;;5030190;28;20897;-70
2023/04/23 11:14:36;;;;;;;6.67;5.67;;;16.40;99.90;;;;;;5021711;28;20893;-70
2023/04/23 11:17:03;;;;;;;8.43;6.90;;;16.00;99.90;;;;;;5033208;28;20798;-71
2023/04/23 11:19:30;;;;;;;7.70;6.90;;;16.00;99.90;;;;;;5024115;28;20466;-71
2023/04/23 11:22:00;;;;;;;9.33;7.03;;;16.10;99.90;;;;;;5023860;28;20426;-71
2023/04/23 11:24:37;;;;;;;7.20;6.60;;;16.40;99.90;;;;;;5028619;28;20837;-71
2023/04/23 11:27:14;;;;;;;7.00;6.30;;;16.10;99.90;;;;;;5018580;28;20409;-70
2023/04/23 11:29:41;;;;;;;9.30;6.70;;;16.00;99.90;;;;;;5021095;28;20429;-69
2023/04/23 11:32:12;;;;;;;8.70;7.77;;;16.10;99.90;;;;;;5018571;28;20501;-71
2023/04/23 11:34:39;;;;;;;7.20;6.03;;;16.00;99.90;;;;;;5029624;28;20437;-71
2023/04/23 11:37:05;;;;;;;8.73;7.40;;;16.30;99.90;;;;;;5024619;28;20417;-69
2023/04/23 11:39:31;;;;;;;12.07;8.10;;;16.90;99.90;;;;;;5017436;28;20454;-71
2023/04/23 11:42:01;;;;;;;9.33;7.73;;;16.70;99.90;;;;;;5023856;28;20208;-70
2023/04/23 11:44:27;;;;;;;8.90;6.87;;;16.20;99.90;;;;;;5024753;28;20413;-70
2023/04/23 11:46:53;;;;;;;10.33;7.60;;;16.30;99.90;;;;;;5025937;28;20502;-72
2023/04/23 11:49:20;;;;;;;8.90;7.30;;;16.80;99.90;;;;;;5026620;28;20879;-71
2023/04/23 11:51:47;;;;;;;9.70;7.03;;;17.10;99.90;;;;;;5019534;28;20184;-72
2023/04/23 11:54:13;;;;;;;9.40;8.00;;;17.20;99.90;;;;;;5018185;28;20418;-71
2023/04/23 11:56:40;;;;;;;7.70;6.90;;;17.60;99.90;;;;;;5021402;28;20497;-70
2023/04/23 11:59:06;;;;;;;8.27;7.47;;;17.50;99.90;;;;;;5022725;28;20463;-70
2023/04/23 12:01:42;;;;;;;6.90;6.30;;;17.70;99.90;;;;;;5019626;28;20435;-72
2023/04/23 12:04:13;;;;;;;8.20;6.47;;;17.60;99.90;;;;;;5004485;28;20494;-71
2023/04/23 12:06:44;;;;;;;7.13;6.00;;;17.40;99.90;;;;;;5027561;28;20779;-71
2023/04/23 12:09:11;;;;;;;6.87;6.23;;;17.70;99.90;;;;;;5022896;28;20439;-71
2023/04/23 12:11:37;;;;;;;9.40;7.43;;;17.40;99.90;;;;;;5031676;28;20484;-71
2023/04/23 12:14:03;;;;;;;7.13;6.43;;;17.00;99.90;;;;;;5020568;28;20493;-71
2023/04/23 12:16:37;;;;;;;8.57;6.40;;;17.20;99.90;;;;;;5007046;28;20443;-72
2023/04/23 12:19:02;;;;;;;7.53;5.73;;;17.50;99.90;;;;;;5022348;28;20204;-70
2023/04/23 12:21:28;;;;;;;8.33;6.77;;;17.20;99.90;;;;;;5028103;28;20825;-71
2023/04/23 12:23:56;;;;;;;7.50;6.00;;;17.70;99.90;;;;;;5030629;28;20173;-72
2023/04/23 12:26:23;;;;;;;6.20;4.93;;;17.50;99.90;;;;;;5023988;28;20760;-71
2023/04/23 12:28:50;;;;;;;5.10;4.10;;;17.70;99.90;;;;;;5031561;28;20666;-72
2023/04/23 12:31:26;;;;;;;6.80;4.80;;;18.00;99.90;;;;;;5006970;28;20425;-71
2023/04/23 12:34:08;;;;;;;5.63;4.40;;;17.80;99.90;;;;;;5024464;28;20942;-70
2023/04/23 12:36:36;;;;;;;6.63;3.77;;;17.60;99.90;;;;;;5024366;28;20756;-71
2023/04/23 12:39:21;;;;;;;4.60;4.07;;;17.10;99.90;;;;;;5030631;28;20459;-72
2023/04/23 12:41:52;;;;;;;6.07;4.00;;;18.10;99.90;;;;;;5017524;28;20460;-71
2023/04/23 12:44:18;;;;;;;4.20;3.80;;;17.80;99.90;;;;;;5023620;28;20412;-71